Time;durP1;ratioP1;P1;durP2;ratioP2;P2;SDS_P1;SDS_P2;PMS_P1;PMS_P2;Temp;Humidity;BMP_temperature;BMP_pressure;BME280_temperature;BME280_humidity;BME280_pressure;Samples;Min_cycle;Max_cycle;Signal;HPM_P1;HPM_P2
2022/01/06 00:02:16;;;;;;;21.52;3.53;;;;;;;4.34;80.28;101340.69;3570234;40;20053;-64
2022/01/06 00:04:42;;;;;;;22.15;3.75;;;;;;;4.33;80.60;101338.94;3571111;40;20461;-65
2022/01/06 00:07:08;;;;;;;15.85;3.13;;;;;;;4.29;80.80;101337.28;3569818;40;20081;-64
2022/01/06 00:09:34;;;;;;;19.40;3.85;;;;;;;4.25;80.40;101340.97;3571148;40;20065;-65
2022/01/06 00:11:59;;;;;;;21.70;4.30;;;;;;;4.20;80.71;101342.84;3569765;40;20064;-65
2022/01/06 00:14:50;;;;;;;21.15;4.18;;;;;;;4.20;81.00;101348.19;3570103;40;20055;-64
2022/01/06 00:17:24;;;;;;;19.23;3.72;;;;;;;4.16;80.81;101342.06;3564716;40;20404;-64
2022/01/06 00:25:18;;;;;;;18.58;3.72;;;;;;;4.01;80.98;101344.28;3564924;40;19939;-65
2022/01/06 00:27:44;;;;;;;12.80;3.90;;;;;;;3.95;81.31;101346.16;3569087;40;20093;-65
2022/01/06 00:30:10;;;;;;;17.90;3.55;;;;;;;3.98;81.32;101357.66;3570375;40;20068;-65
2022/01/06 00:32:35;;;;;;;18.20;3.75;;;;;;;3.95;81.13;101350.63;3564633;40;20370;-64
2022/01/06 00:35:01;;;;;;;19.45;4.05;;;;;;;3.93;80.89;101355.09;3566841;40;20049;-66
2022/01/06 00:37:27;;;;;;;23.38;4.22;;;;;;;3.91;81.23;101352.47;3569224;40;20057;-66
2022/01/06 00:39:53;;;;;;;15.50;3.20;;;;;;;3.89;80.73;101362.28;3564298;40;20060;-65
2022/01/06 00:42:18;;;;;;;16.85;3.70;;;;;;;3.86;81.05;101369.47;3570086;40;20462;-64
2022/01/06 00:44:44;;;;;;;18.55;3.95;;;;;;;3.84;81.14;101369.53;3570591;40;20053;-64
2022/01/06 00:47:09;;;;;;;18.65;3.90;;;;;;;3.81;81.05;101366.94;3571653;40;20069;-64
2022/01/06 00:49:35;;;;;;;18.33;3.75;;;;;;;3.78;80.53;101375.00;3563794;40;20053;-64
2022/01/06 00:52:01;;;;;;;18.70;3.55;;;;;;;3.75;80.49;101375.06;3566854;40;20314;-64
2022/01/06 00:54:26;;;;;;;23.25;4.13;;;;;;;3.72;80.80;101375.13;3569421;40;20055;-65
2022/01/06 00:56:52;;;;;;;19.25;3.42;;;;;;;3.70;81.06;101372.50;3564159;40;20053;-65
2022/01/06 00:59:17;;;;;;;21.65;4.50;;;;;;;3.68;81.19;101373.47;3565763;40;20068;-64
2022/01/06 01:01:43;;;;;;;26.58;4.40;;;;;;;3.69;81.07;101376.09;3565931;40;20057;-65
2022/01/06 01:04:09;;;;;;;18.30;3.65;;;;;;;3.70;81.24;101376.94;3566303;40;21738;-64
2022/01/06 01:06:34;;;;;;;20.73;3.75;;;;;;;3.69;80.50;101367.25;3566431;40;20422;-64
2022/01/06 01:09:00;;;;;;;19.30;3.58;;;;;;;3.69;80.80;101368.09;3565649;40;20104;-64
2022/01/06 01:11:26;;;;;;;21.58;3.60;;;;;;;3.66;80.47;101376.16;3571929;40;20057;-66
2022/01/06 01:13:56;;;;;;;19.85;4.05;;;;;;;3.63;80.23;101376.22;3570883;40;20418;-65
2022/01/06 01:16:31;;;;;;;16.80;3.80;;;;;;;3.65;80.15;101381.53;3571813;40;20064;-64
2022/01/06 01:19:00;;;;;;;15.15;3.22;;;;;;;3.59;80.32;101365.72;3569734;40;20122;-63
2022/01/06 01:21:28;;;;;;;19.25;3.47;;;;;;;3.57;80.49;101367.53;3572274;40;20061;-66
2022/01/06 01:23:59;;;;;;;20.85;3.53;;;;;;;3.54;79.91;101373.78;3571937;40;20417;-64
2022/01/06 01:26:27;;;;;;;15.38;3.15;;;;;;;3.52;80.00;101377.38;3572365;40;20056;-65
2022/01/06 01:28:53;;;;;;;16.67;3.78;;;;;;;3.49;80.42;101383.69;3570673;40;20049;-63
2022/01/06 01:31:30;;;;;;;26.52;3.67;;;;;;;3.46;80.26;101381.97;3571021;40;20384;-64
2022/01/06 01:33:58;;;;;;;18.73;4.65;;;;;;;3.44;79.77;101391.75;3576066;40;20045;-65
2022/01/06 01:36:25;;;;;;;17.15;3.17;;;;;;;3.33;80.83;101375.19;3569113;40;20056;-65
2022/01/06 01:38:51;;;;;;;22.30;3.60;;;;;;;3.38;80.38;101389.22;3570829;40;20060;-64
2022/01/06 01:41:17;;;;;;;21.33;3.58;;;;;;;3.36;80.64;101393.72;3571895;40;20053;-64
2022/01/06 01:43:46;;;;;;;15.38;3.42;;;;;;;3.32;80.55;101400.00;3569937;40;20160;-64
2022/01/06 01:46:16;;;;;;;21.90;3.60;;;;;;;3.31;80.87;101406.22;3568994;40;21799;-65
2022/01/06 01:48:49;;;;;;;17.27;3.78;;;;;;;3.27;80.83;101396.59;3572246;40;20060;-64
2022/01/06 01:51:14;;;;;;;20.75;4.43;;;;;;;3.29;80.89;101421.31;3567042;40;20105;-65
2022/01/06 01:53:40;;;;;;;17.55;3.47;;;;;;;3.28;80.50;101416.91;3568753;40;20304;-65
2022/01/06 01:56:09;;;;;;;22.08;3.85;;;;;;;3.28;80.60;101419.56;3565744;40;20049;-64
2022/01/06 01:58:36;;;;;;;16.55;3.67;;;;;;;3.18;80.69;101418.03;3565457;40;20053;-65
2022/01/06 02:01:03;;;;;;;17.55;3.42;;;;;;;3.28;80.90;101424.88;3565800;40;20059;-64
2022/01/06 02:03:29;;;;;;;17.55;4.15;;;;;;;3.25;80.48;101427.63;3565657;40;20057;-66
2022/01/06 02:05:55;;;;;;;21.55;3.28;;;;;;;3.30;80.55;101433.72;3565203;40;20249;-65
2022/01/06 02:08:21;;;;;;;20.25;4.10;;;;;;;3.31;81.22;101432.78;3566066;40;20049;-64
2022/01/06 02:10:46;;;;;;;18.15;3.63;;;;;;;3.32;80.47;101437.19;3571790;40;20056;-64
2022/01/06 02:13:12;;;;;;;27.77;5.03;;;;;;;3.32;80.11;101434.53;3565168;40;20072;-67
2022/01/06 02:15:38;;;;;;;20.08;3.60;;;;;;;3.31;80.22;101440.75;3565614;40;20123;-64
2022/01/06 02:18:03;;;;;;;24.25;4.05;;;;;;;3.29;80.22;101437.25;3568080;40;20049;-64
2022/01/06 02:20:29;;;;;;;21.13;3.90;;;;;;;3.25;80.47;101430.28;3572596;40;20420;-62
2022/01/06 02:22:55;;;;;;;16.52;3.78;;;;;;;3.26;80.62;101445.28;3571724;40;20049;-65
2022/01/06 02:25:29;;;;;;;14.80;3.85;;;;;;;3.23;80.46;101440.03;3572016;40;20055;-65
2022/01/06 02:27:55;;;;;;;25.08;4.30;;;;;;;3.08;80.77;101427.13;3571727;40;20299;-64
2022/01/06 02:30:25;;;;;;;20.00;4.35;;;;;;;3.19;80.09;101441.91;3570543;40;20056;-64
2022/01/06 02:32:51;;;;;;;19.10;4.50;;;;;;;3.12;79.98;101434.97;3572208;40;20067;-65
2022/01/06 02:35:21;;;;;;;15.68;3.53;;;;;;;3.12;80.36;101445.59;3571310;40;20368;-64
2022/01/06 02:37:47;;;;;;;19.50;4.13;;;;;;;3.09;79.70;101445.66;3613944;22;20070;-63
2022/01/06 02:40:17;;;;;;;16.90;3.72;;;;;;;3.08;80.00;101448.38;3578999;40;20070;-63
2022/01/06 02:42:48;;;;;;;14.95;3.33;;;;;;;3.07;80.54;101443.94;3579285;40;20060;-64
2022/01/06 02:45:16;;;;;;;20.27;4.13;;;;;;;3.05;80.36;101441.31;3581673;40;20190;-63
2022/01/06 02:47:44;;;;;;;18.52;3.28;;;;;;;3.02;80.25;101436.94;3585903;40;20056;-64
2022/01/06 02:50:12;;;;;;;17.90;3.72;;;;;;;3.00;80.59;101435.22;3584673;40;20459;-63
2022/01/06 02:52:38;;;;;;;15.95;3.47;;;;;;;2.86;80.49;101416.06;3586731;40;20052;-64
2022/01/06 02:55:12;;;;;;;16.52;3.45;;;;;;;3.01;80.32;101447.59;3585214;40;20050;-62
2022/01/06 02:57:39;;;;;;;19.08;3.78;;;;;;;2.95;80.49;101438.00;3587853;40;20063;-63
2022/01/06 03:00:10;;;;;;;23.13;4.28;;;;;;;2.99;80.29;101439.66;3585174;40;20055;-62
2022/01/06 03:02:36;;;;;;;21.63;3.90;;;;;;;3.00;80.64;101452.03;3586675;40;20140;-62
2022/01/06 03:05:03;;;;;;;16.17;3.13;;;;;;;2.99;80.67;101444.97;3582038;40;20545;-61
2022/01/06 03:07:30;;;;;;;20.50;3.58;;;;;;;3.00;80.76;101446.72;3585587;40;20063;-61
2022/01/06 03:09:58;;;;;;;17.00;3.85;;;;;;;3.01;80.96;101448.50;3586215;40;20044;-62
2022/01/06 03:12:33;;;;;;;21.80;3.75;;;;;;;3.02;80.33;101452.00;3582392;40;20403;-62
2022/01/06 03:14:59;;;;;;;21.92;3.67;;;;;;;3.01;79.93;101456.47;3590686;40;20060;-61
2022/01/06 03:17:25;;;;;;;16.00;4.10;;;;;;;3.00;80.46;101462.66;3588015;40;20439;-64
2022/01/06 03:19:50;;;;;;;25.50;6.53;;;;;;;3.02;80.32;101455.53;3584460;40;20044;-61
2022/01/06 03:22:16;;;;;;;18.15;3.63;;;;;;;2.96;80.29;101445.03;3573805;40;20383;-62
2022/01/06 03:24:42;;;;;;;22.27;3.72;;;;;;;2.99;80.24;101450.28;3588417;40;20048;-62
2022/01/06 03:27:08;;;;;;;16.00;3.17;;;;;;;2.97;80.10;101452.09;3571077;40;20069;-62
2022/01/06 03:29:34;;;;;;;21.75;3.17;;;;;;;3.03;80.34;101462.59;3574959;40;20388;-62
2022/01/06 03:32:00;;;;;;;18.50;3.33;;;;;;;3.05;79.90;101469.69;3583807;40;20040;-61
2022/01/06 03:34:30;;;;;;;20.40;3.15;;;;;;;3.04;80.57;101474.09;3579215;40;20377;-62
2022/01/06 03:36:57;;;;;;;18.33;3.55;;;;;;;3.04;80.62;101476.75;3573645;40;20053;-64
2022/01/06 03:39:23;;;;;;;16.92;3.47;;;;;;;3.03;79.92;101483.84;3578156;40;20327;-62
2022/01/06 03:41:49;;;;;;;16.48;3.05;;;;;;;2.84;79.78;101450.59;3579481;40;20060;-62
2022/01/06 03:44:15;;;;;;;19.60;3.63;;;;;;;3.03;80.11;101478.53;3583691;40;20061;-62
2022/01/06 03:46:40;;;;;;;18.00;3.50;;;;;;;3.04;80.07;101492.69;3576605;40;20056;-62
2022/01/06 03:49:06;;;;;;;17.85;3.05;;;;;;;3.06;80.63;101487.34;3574087;40;20088;-62
2022/01/06 03:51:32;;;;;;;19.20;3.17;;;;;;;3.06;79.98;101488.22;3581284;40;20052;-61
2022/01/06 03:53:58;;;;;;;25.45;3.78;;;;;;;3.07;80.24;101491.75;3584819;40;20491;-61
2022/01/06 03:56:23;;;;;;;20.00;3.45;;;;;;;3.07;80.23;101489.09;3581957;40;20052;-62
2022/01/06 03:58:49;;;;;;;17.35;3.80;;;;;;;3.04;80.15;101484.72;3586355;40;20411;-62
2022/01/06 04:01:16;;;;;;;16.70;3.50;;;;;;;3.03;80.42;101486.50;3583911;40;20403;-62
2022/01/06 04:03:44;;;;;;;22.65;3.72;;;;;;;3.01;79.58;101483.00;3587064;40;20055;-62
2022/01/06 04:06:10;;;;;;;18.00;3.47;;;;;;;2.95;79.84;101463.63;3583181;40;20060;-61
2022/01/06 04:08:37;;;;;;;19.95;3.58;;;;;;;3.03;79.84;101478.53;3585498;40;20083;-62
2022/01/06 04:11:03;;;;;;;14.95;3.35;;;;;;;3.03;79.93;101475.00;3585296;40;20371;-62
2022/01/06 04:13:29;;;;;;;21.02;3.88;;;;;;;3.07;79.49;101478.47;3581104;40;20086;-62
2022/01/06 04:15:55;;;;;;;18.95;3.10;;;;;;;2.99;79.34;101466.22;3581258;40;20070;-62
2022/01/06 04:18:20;;;;;;;17.88;3.47;;;;;;;3.10;80.04;101489.03;3584194;40;20585;-62
2022/01/06 04:20:46;;;;;;;12.40;2.75;;;;;;;3.09;79.65;101487.28;3585181;40;20047;-62
2022/01/06 04:23:12;;;;;;;19.67;3.75;;;;;;;3.13;80.09;101495.16;3578612;40;20064;-62
2022/01/06 04:25:37;;;;;;;14.57;3.17;;;;;;;3.13;79.26;101500.47;3574202;40;20057;-62
2022/01/06 04:28:03;;;;;;;20.55;3.08;;;;;;;3.10;80.14;101500.53;3581421;40;20052;-63
2022/01/06 04:30:29;;;;;;;15.52;3.15;;;;;;;3.11;79.41;101514.66;3576646;40;20122;-62
2022/01/06 04:32:54;;;;;;;15.82;3.58;;;;;;;3.09;79.32;101505.88;3573185;40;20299;-61
2022/01/06 04:35:20;;;;;;;18.35;3.20;;;;;;;3.00;79.27;101496.31;3579269;40;20045;-62
2022/01/06 04:37:46;;;;;;;16.80;3.05;;;;;;;3.07;79.33;101508.56;3582025;40;20389;-62
2022/01/06 04:40:12;;;;;;;16.55;3.17;;;;;;;3.09;79.62;101503.22;3581771;40;20316;-61
2022/01/06 04:42:38;;;;;;;22.17;3.25;;;;;;;3.00;79.77;101498.97;3573879;40;20053;-61
2022/01/06 04:45:04;;;;;;;25.63;4.22;;;;;;;3.05;79.49;101513.03;3574142;40;20067;-62
2022/01/06 04:47:30;;;;;;;24.15;3.65;;;;;;;3.02;80.01;101515.75;3577047;40;20385;-62
2022/01/06 04:49:56;;;;;;;17.85;3.22;;;;;;;2.98;79.70;101517.59;3572274;40;20057;-61
2022/01/06 04:52:21;;;;;;;14.90;3.10;;;;;;;2.93;79.76;101516.78;3584134;40;20049;-62
2022/01/06 04:54:47;;;;;;;16.50;2.92;;;;;;;2.92;79.35;101517.72;3581676;40;20082;-61
2022/01/06 04:57:12;;;;;;;18.00;3.22;;;;;;;2.90;79.47;101524.81;3583409;40;20065;-61
2022/01/06 04:59:38;;;;;;;17.25;3.45;;;;;;;2.75;79.72;101511.81;3583191;40;20087;-62
2022/01/06 05:02:05;;;;;;;16.60;3.53;;;;;;;2.71;79.53;101499.53;3563751;40;20401;-62
2022/01/06 05:04:30;;;;;;;19.33;3.75;;;;;;;2.83;79.87;101522.31;3575386;40;20512;-62
2022/01/06 05:06:56;;;;;;;20.63;3.90;;;;;;;2.75;79.69;101525.97;3579047;40;20101;-61
2022/01/06 05:09:22;;;;;;;20.45;3.70;;;;;;;2.76;79.92;101538.38;3583148;40;20045;-64
2022/01/06 05:11:47;;;;;;;21.70;3.30;;;;;;;2.74;79.70;101540.16;3583175;40;20289;-61
2022/01/06 05:14:13;;;;;;;16.73;3.17;;;;;;;2.70;80.05;101542.91;3587778;40;20053;-62
2022/01/06 05:16:38;;;;;;;19.95;3.53;;;;;;;2.65;79.95;101542.09;3589973;40;20048;-62
2022/01/06 05:19:04;;;;;;;13.82;3.63;;;;;;;2.61;79.98;101543.06;3581670;40;20109;-61
2022/01/06 05:21:31;;;;;;;18.75;3.72;;;;;;;2.51;79.68;101543.22;3586048;40;20391;-62
2022/01/06 05:23:57;;;;;;;11.65;3.55;;;;;;;2.52;80.41;101550.28;3584547;40;20059;-62
2022/01/06 05:26:23;;;;;;;17.10;3.25;;;;;;;2.50;80.29;101545.88;3582753;40;20485;-62
2022/01/06 05:28:49;;;;;;;18.13;3.75;;;;;;;2.37;80.83;101534.59;3580029;40;20271;-62
2022/01/06 05:31:15;;;;;;;17.35;3.97;;;;;;;2.25;79.76;101529.50;3582536;40;20053;-61
2022/01/06 05:33:41;;;;;;;15.77;4.00;;;;;;;2.37;80.23;101561.13;3586014;40;20309;-62
2022/01/06 05:36:07;;;;;;;14.48;3.42;;;;;;;2.36;79.68;101559.41;3583528;40;20176;-61
2022/01/06 05:38:32;;;;;;;20.33;3.15;;;;;;;2.32;79.44;101568.31;3582390;40;20053;-62
2022/01/06 05:40:58;;;;;;;17.83;3.72;;;;;;;2.28;79.62;101571.88;3584358;40;20061;-61
2022/01/06 05:43:25;;;;;;;16.27;3.60;;;;;;;2.23;80.34;101574.63;3576391;40;20426;-64
2022/01/06 05:45:53;;;;;;;18.00;4.38;;;;;;;2.19;80.27;101575.59;3576131;40;20055;-61
2022/01/06 05:48:20;;;;;;;22.40;4.60;;;;;;;2.18;80.60;101572.94;3575292;40;20403;-61
2022/01/06 05:50:48;;;;;;;15.30;3.70;;;;;;;2.03;80.71;101560.78;3574890;40;20065;-62
2022/01/06 05:53:15;;;;;;;20.48;3.97;;;;;;;2.12;80.19;101573.03;3572288;40;20052;-62
2022/01/06 05:55:41;;;;;;;18.63;3.35;;;;;;;2.10;80.45;101578.38;3585042;40;20047;-62
2022/01/06 05:58:07;;;;;;;20.23;4.07;;;;;;;2.09;80.92;101587.19;3590949;40;20409;-61
2022/01/06 06:00:33;;;;;;;13.65;2.92;;;;;;;2.06;80.84;101588.16;3590316;40;20053;-62
2022/01/06 06:02:58;;;;;;;19.30;3.45;;;;;;;2.07;81.42;101595.19;3589503;40;20071;-62
2022/01/06 06:05:25;;;;;;;16.98;3.67;;;;;;;2.03;80.19;101593.50;3589067;40;20391;-61
2022/01/06 06:07:50;;;;;;;18.48;3.95;;;;;;;2.02;81.32;101594.38;3588067;40;20056;-62
2022/01/06 06:10:16;;;;;;;24.55;4.28;;;;;;;1.85;80.98;101567.22;3589488;40;20052;-61
2022/01/06 06:12:41;;;;;;;20.02;4.03;;;;;;;2.06;81.52;101603.16;3587608;40;20056;-63
2022/01/06 06:15:07;;;;;;;18.92;4.20;;;;;;;2.05;81.32;101596.97;3589636;40;20070;-62
2022/01/06 06:17:33;;;;;;;15.32;3.60;;;;;;;2.06;80.29;101609.38;3590267;40;20387;-62
2022/01/06 06:19:59;;;;;;;19.85;3.50;;;;;;;2.04;80.44;101605.84;3589358;40;20125;-62
2022/01/06 06:22:24;;;;;;;17.77;3.50;;;;;;;2.02;81.21;101610.28;3588966;40;20072;-62
2022/01/06 06:24:50;;;;;;;17.63;3.30;;;;;;;2.06;80.92;101613.75;3591089;40;20059;-62
2022/01/06 06:27:16;;;;;;;17.10;3.55;;;;;;;2.01;81.03;101610.31;3589115;40;20322;-62
2022/01/06 06:29:41;;;;;;;9.52;2.85;;;;;;;2.06;80.69;101608.47;3588224;40;20040;-62
2022/01/06 06:32:07;;;;;;;18.98;4.38;;;;;;;2.06;80.38;101614.66;3574785;40;20060;-62
2022/01/06 06:34:33;;;;;;;17.85;4.00;;;;;;;2.05;80.73;101617.31;3583675;40;20056;-61
2022/01/06 06:36:58;;;;;;;21.15;3.60;;;;;;;2.06;80.97;101624.38;3589278;40;20147;-62
2022/01/06 06:39:24;;;;;;;15.02;3.38;;;;;;;2.04;80.62;101618.22;3579328;40;20064;-62
2022/01/06 06:41:49;;;;;;;13.77;3.33;;;;;;;2.06;80.67;101619.97;3574928;40;20060;-62
2022/01/06 06:44:15;;;;;;;17.48;3.72;;;;;;;2.06;80.59;101614.66;3575385;40;20056;-61
2022/01/06 06:46:41;;;;;;;16.65;3.47;;;;;;;2.06;80.69;101625.28;3578013;40;20084;-62
2022/01/06 06:49:06;;;;;;;16.42;3.40;;;;;;;2.03;79.73;101625.31;3574766;40;20052;-62
2022/01/06 06:51:32;;;;;;;16.98;4.10;;;;;;;2.05;81.23;101630.59;3583114;40;20410;-62
2022/01/06 06:53:57;;;;;;;16.40;3.53;;;;;;;2.02;80.45;101631.50;3584440;40;20469;-62
2022/01/06 06:56:23;;;;;;;17.00;4.88;;;;;;;2.01;81.03;101637.72;3579689;40;20079;-62
2022/01/06 06:58:49;;;;;;;16.08;3.45;;;;;;;1.67;80.60;101583.38;3588571;40;20129;-62
2022/01/06 07:01:14;;;;;;;10.25;2.70;;;;;;;1.96;80.58;101639.53;3589174;40;20118;-62
2022/01/06 07:03:40;;;;;;;20.10;3.40;;;;;;;1.96;80.81;101639.53;3590856;40;20048;-62
2022/01/06 07:06:05;;;;;;;16.42;3.53;;;;;;;1.99;80.14;101644.78;3587513;40;20059;-62
2022/01/06 07:08:31;;;;;;;14.38;3.80;;;;;;;1.98;80.71;101651.00;3584473;40;20060;-62
2022/01/06 07:10:56;;;;;;;11.80;3.50;;;;;;;2.00;80.60;101651.00;3576164;40;20130;-62
2022/01/06 07:13:22;;;;;;;21.35;4.30;;;;;;;2.00;80.37;101657.19;3582966;40;20137;-62
2022/01/06 07:15:48;;;;;;;15.73;3.47;;;;;;;2.01;80.12;101663.34;3587159;40;20056;-62
2022/01/06 07:18:14;;;;;;;17.58;3.38;;;;;;;1.77;80.48;101619.47;3582080;40;20398;-62
2022/01/06 07:20:41;;;;;;;15.90;3.55;;;;;;;1.99;80.08;101670.44;3584513;40;20074;-62
2022/01/06 07:23:07;;;;;;;15.18;4.07;;;;;;;1.98;80.36;101672.22;3586743;40;20060;-62
2022/01/06 07:25:32;;;;;;;16.30;3.80;;;;;;;1.99;80.76;101684.56;3590564;40;20056;-62
2022/01/06 07:27:58;;;;;;;13.50;3.65;;;;;;;2.00;79.96;101682.81;3591483;40;20133;-61
2022/01/06 07:30:24;;;;;;;11.75;3.13;;;;;;;1.83;79.68;101654.72;3580833;40;20069;-62
2022/01/06 07:32:51;;;;;;;15.25;3.65;;;;;;;1.93;80.06;101681.13;3579490;40;20056;-62
2022/01/06 07:35:21;;;;;;;17.77;3.63;;;;;;;1.88;80.04;101673.22;3581122;40;20061;-61
2022/01/06 07:37:49;;;;;;;20.83;4.00;;;;;;;1.94;80.21;101683.75;3589479;40;20102;-63
2022/01/06 07:40:15;;;;;;;17.17;3.58;;;;;;;1.80;80.50;101668.00;3587815;40;20036;-62
2022/01/06 07:42:41;;;;;;;21.80;4.20;;;;;;;1.86;79.48;101680.31;3590166;40;20076;-62
2022/01/06 07:45:07;;;;;;;14.13;3.67;;;;;;;1.89;80.13;101687.38;3588766;40;20058;-62
2022/01/06 07:47:36;;;;;;;18.13;3.92;;;;;;;1.90;80.63;101695.28;3588182;40;20063;-61
2022/01/06 07:50:04;;;;;;;13.18;3.20;;;;;;;1.87;81.07;101684.72;3576897;40;20400;-62
2022/01/06 07:52:29;;;;;;;18.95;4.50;;;;;;;1.89;80.56;101690.88;3582932;40;20130;-63
2022/01/06 07:54:55;;;;;;;18.88;3.88;;;;;;;1.88;80.81;101682.97;3580738;40;20056;-63
2022/01/06 07:57:21;;;;;;;17.00;4.15;;;;;;;1.85;80.63;101686.53;3578358;40;20064;-63
2022/01/06 07:59:46;;;;;;;20.30;4.15;;;;;;;1.85;81.05;101689.19;3580144;40;20047;-63
2022/01/06 08:02:12;;;;;;;18.70;4.45;;;;;;;1.76;80.20;101676.91;3581782;40;20125;-64
2022/01/06 08:04:37;;;;;;;17.77;4.45;;;;;;;1.81;80.78;101700.72;3590565;40;20054;-63
2022/01/06 08:07:03;;;;;;;17.88;4.65;;;;;;;1.77;81.57;101685.72;3577240;40;20087;-63
2022/01/06 08:09:29;;;;;;;16.85;5.13;;;;;;;1.26;80.94;101603.28;3589876;40;20410;-63
2022/01/06 08:11:55;;;;;;;17.52;4.90;;;;;;;1.72;81.04;101674.31;3577915;40;20057;-63
2022/01/06 08:14:20;;;;;;;15.85;5.30;;;;;;;1.87;80.42;101697.97;3586960;40;20060;-63
2022/01/06 08:16:46;;;;;;;16.00;5.05;;;;;;;1.89;80.83;101706.78;3583902;40;20060;-63
2022/01/06 08:19:12;;;;;;;15.88;5.60;;;;;;;1.91;81.37;101697.06;3574458;40;20044;-63
2022/01/06 08:21:38;;;;;;;19.13;5.63;;;;;;;1.95;81.27;101698.78;3574316;40;20153;-63
2022/01/06 08:24:04;;;;;;;16.75;6.25;;;;;;;1.92;81.20;101693.50;3577446;40;20052;-63
2022/01/06 08:26:30;;;;;;;19.10;6.72;;;;;;;2.00;81.75;101704.91;3574145;40;20060;-63
2022/01/06 08:28:56;;;;;;;19.60;7.60;;;;;;;2.05;82.24;101707.47;3574132;40;20047;-63
2022/01/06 08:31:22;;;;;;;24.60;7.97;;;;;;;2.11;81.33;101702.09;3574370;40;20072;-63
2022/01/06 08:33:47;;;;;;;19.48;6.78;;;;;;;2.14;81.36;101706.50;3575263;40;20283;-63
2022/01/06 08:36:14;;;;;;;30.80;8.60;;;;;;;2.15;81.91;101708.25;3573878;40;20129;-63
2022/01/06 08:38:41;;;;;;;20.58;7.95;;;;;;;2.13;81.55;101694.16;3628383;22;20374;-65
2022/01/06 08:41:06;;;;;;;23.92;7.53;;;;;;;2.26;81.58;101707.22;3601026;39;20286;-63
2022/01/06 08:43:32;;;;;;;21.85;8.23;;;;;;;2.29;81.86;101712.47;3603299;39;20069;-65
2022/01/06 08:45:58;;;;;;;19.35;8.13;;;;;;;2.36;81.64;101718.56;3603050;39;20051;-64
2022/01/06 08:48:26;;;;;;;16.13;8.75;;;;;;;2.40;81.68;101722.94;3597052;39;20055;-64
2022/01/06 08:50:53;;;;;;;25.00;9.38;;;;;;;2.39;81.69;101718.53;3593906;40;20059;-63
2022/01/06 08:53:21;;;;;;;20.55;8.73;;;;;;;2.24;82.18;101692.22;3593556;40;20107;-64
2022/01/06 08:55:47;;;;;;;20.35;10.27;;;;;;;2.52;81.73;101725.44;3593143;40;20048;-64
2022/01/06 08:58:14;;;;;;;25.65;9.50;;;;;;;2.60;81.91;101732.38;3581570;40;20048;-63
2022/01/06 09:00:41;;;;;;;24.00;9.63;;;;;;;2.58;81.44;101727.13;3589064;39;20060;-64
2022/01/06 09:03:09;;;;;;;32.55;10.65;;;;;;;2.68;81.63;101730.50;3592574;40;20048;-64
2022/01/06 09:05:36;;;;;;;27.40;10.10;;;;;;;2.75;81.57;101734.81;3593652;40;20056;-63
2022/01/06 09:08:04;;;;;;;22.50;9.93;;;;;;;2.80;81.90;101730.34;3593190;40;20051;-63
2022/01/06 09:10:31;;;;;;;27.38;9.85;;;;;;;2.87;81.70;101737.31;3593552;40;20048;-64
2022/01/06 09:12:57;;;;;;;24.17;9.68;;;;;;;2.93;81.83;101731.91;3593010;40;20359;-63
2022/01/06 09:15:23;;;;;;;22.92;9.63;;;;;;;2.66;81.37;101684.53;3593730;40;20064;-64
2022/01/06 09:17:49;;;;;;;26.42;10.18;;;;;;;3.05;81.41;101745.91;3594308;39;20048;-64
2022/01/06 09:20:15;;;;;;;25.17;9.38;;;;;;;3.12;80.89;101742.22;3596545;39;20091;-64
2022/01/06 09:22:43;;;;;;;30.10;9.48;;;;;;;3.15;80.49;101742.19;3595467;40;20058;-64
2022/01/06 09:25:11;;;;;;;25.45;10.05;;;;;;;3.20;81.15;101750.94;3594987;40;20058;-64
2022/01/06 09:27:38;;;;;;;24.35;9.45;;;;;;;3.24;80.68;101747.34;3595365;40;20054;-64
2022/01/06 09:30:06;;;;;;;22.73;9.55;;;;;;;3.31;80.94;101751.66;3594448;40;20060;-64
2022/01/06 09:32:32;;;;;;;27.58;9.77;;;;;;;3.39;80.98;101752.38;3595046;40;20105;-64
2022/01/06 09:35:00;;;;;;;18.02;8.30;;;;;;;3.46;80.20;101756.72;3595170;39;20052;-65
2022/01/06 09:37:26;;;;;;;25.80;8.95;;;;;;;3.53;79.96;101757.47;3594767;40;20055;-64
2022/01/06 09:39:51;;;;;;;22.70;8.18;;;;;;;3.64;80.12;101762.59;3595513;40;20054;-65
2022/01/06 09:42:20;;;;;;;25.58;8.70;;;;;;;3.51;80.43;101718.53;3595232;40;20136;-65
2022/01/06 09:44:50;;;;;;;20.63;8.30;;;;;;;3.85;79.98;101764.84;3595179;40;20048;-65
2022/01/06 09:47:18;;;;;;;20.65;8.30;;;;;;;3.93;80.05;101760.28;3595708;39;20151;-66
2022/01/06 09:49:44;;;;;;;25.38;7.82;;;;;;;3.93;79.24;101749.63;3597156;40;20056;-64
2022/01/06 09:52:12;;;;;;;23.23;7.50;;;;;;;4.10;79.24;101757.28;3595735;39;20046;-66
2022/01/06 09:54:40;;;;;;;21.20;7.75;;;;;;;4.22;78.67;101757.91;3595472;40;20048;-67
2022/01/06 09:57:08;;;;;;;20.98;6.97;;;;;;;4.32;78.50;101768.38;3594320;40;20125;-66
2022/01/06 09:59:33;;;;;;;23.45;7.43;;;;;;;4.26;78.28;101736.56;3594936;40;20055;-65
2022/01/06 10:02:00;;;;;;;21.20;6.97;;;;;;;4.58;78.22;101766.94;3594673;40;20164;-65
2022/01/06 10:04:28;;;;;;;18.33;6.35;;;;;;;4.74;77.90;101772.78;3593659;40;20059;-64
2022/01/06 10:07:07;;;;;;;19.20;5.90;;;;;;;4.96;77.10;101760.72;3594523;40;20163;-64
2022/01/06 10:09:35;;;;;;;22.02;7.05;;;;;;;5.16;76.98;101768.25;3596613;39;20062;-64
2022/01/06 10:12:13;;;;;;;16.95;6.10;;;;;;;5.17;75.80;101730.03;3582287;40;20115;-64
2022/01/06 10:14:47;;;;;;;16.55;6.25;;;;;;;5.55;75.58;101754.81;3592964;40;20375;-67
2022/01/06 10:17:29;;;;;;;20.88;5.75;;;;;;;5.75;74.01;101744.50;3596432;40;20062;-64
2022/01/06 10:19:55;;;;;;;24.02;5.70;;;;;;;5.99;74.19;101764.34;3593915;40;20101;-65
2022/01/06 10:22:21;;;;;;;21.40;5.15;;;;;;;6.25;73.13;101755.59;3595371;40;20060;-65
2022/01/06 10:24:50;;;;;;;19.38;5.20;;;;;;;6.48;72.85;101762.06;3594471;40;20056;-65
2022/01/06 10:27:20;;;;;;;19.92;5.72;;;;;;;6.72;71.75;101757.75;3594078;39;20697;-64
2022/01/06 10:29:50;;;;;;;15.32;4.75;;;;;;;6.96;71.80;101764.13;3594506;40;20047;-65
2022/01/06 10:32:23;;;;;;;22.50;5.38;;;;;;;7.25;70.87;101762.31;3595293;40;20137;-66
2022/01/06 10:34:55;;;;;;;16.70;5.97;;;;;;;7.54;71.26;101761.34;3594719;40;20059;-66
2022/01/06 10:37:41;;;;;;;18.25;5.43;;;;;;;7.77;69.57;101749.81;3594814;39;20055;-65
2022/01/06 10:40:19;;;;;;;13.98;4.70;;;;;;;7.95;68.82;101746.50;3594835;40;20352;-65
2022/01/06 10:42:52;;;;;;;17.60;5.13;;;;;;;7.99;68.75;101750.84;3596217;39;20063;-65
2022/01/06 10:45:24;;;;;;;16.88;4.60;;;;;;;8.08;68.36;101755.81;3594708;40;20067;-68
2022/01/06 10:47:56;;;;;;;13.82;4.65;;;;;;;8.20;67.76;101753.66;3595371;40;20052;-67
2022/01/06 10:50:29;;;;;;;18.65;4.50;;;;;;;8.27;67.21;101755.16;3595012;40;20044;-67
2022/01/06 10:53:04;;;;;;;14.00;4.80;;;;;;;8.36;66.41;101746.78;3594766;40;20056;-66
2022/01/06 10:55:36;;;;;;;13.98;4.18;;;;;;;8.43;66.85;101734.91;3595980;39;20059;-66
2022/01/06 10:58:20;;;;;;;15.65;4.45;;;;;;;8.52;65.68;101742.59;3594186;40;20091;-65
2022/01/06 11:00:52;;;;;;;12.18;4.88;;;;;;;8.71;66.17;101747.25;3592999;39;20086;-65
2022/01/06 11:03:21;;;;;;;17.33;4.18;;;;;;;8.82;65.45;101750.41;3594611;40;20064;-66
2022/01/06 11:05:51;;;;;;;12.98;4.60;;;;;;;8.83;64.96;101744.09;3597222;39;20056;-65
2022/01/06 11:08:21;;;;;;;17.30;4.93;;;;;;;8.93;64.11;101732.06;3594106;40;20065;-65
2022/01/06 11:11:01;;;;;;;15.13;4.38;;;;;;;9.10;65.00;101741.22;3595376;40;20044;-65
2022/01/06 11:13:32;;;;;;;17.77;4.22;;;;;;;9.16;63.41;101732.94;3594029;39;20056;-65
2022/01/06 11:15:58;;;;;;;10.98;4.03;;;;;;;9.25;63.59;101729.88;3594011;40;20056;-65
2022/01/06 11:18:24;;;;;;;17.38;4.50;;;;;;;9.42;62.62;101738.09;3594599;39;20090;-65
2022/01/06 11:21:05;;;;;;;14.50;4.00;;;;;;;9.09;62.51;101670.63;3582919;40;20106;-65
2022/01/06 11:23:32;;;;;;;14.15;4.60;;;;;;;9.54;61.73;101731.31;3593814;40;20408;-64
2022/01/06 11:26:12;;;;;;;14.63;3.90;;;;;;;9.60;61.71;101732.84;3594193;40;20054;-67
2022/01/06 11:28:41;;;;;;;14.75;4.25;;;;;;;9.66;61.50;101735.28;3594459;40;20410;-64
2022/01/06 11:31:23;;;;;;;13.32;4.40;;;;;;;9.61;61.84;101710.44;3594012;40;20048;-64